Time;durP1;ratioP1;P1;durP2;ratioP2;P2;SDS_P1;SDS_P2;PMS_P1;PMS_P2;Temp;Humidity;BMP_temperature;BMP_pressure;BME280_temperature;BME280_humidity;BME280_pressure;Samples;Min_cycle;Max_cycle;Signal;HPM_P1;HPM_P2
2020/12/13 00:01:40;;;;;;;34.83;24.80;;;;;;;5.33;92.00;99209.97;5100831;28;20495;-70
2020/12/13 00:04:06;;;;;;;37.27;24.87;;;;;;;5.19;92.59;99205.00;5101402;28;20423;-70
2020/12/13 00:06:32;;;;;;;38.07;25.13;;;;;;;5.13;92.94;99209.03;5100990;28;20467;-70
2020/12/13 00:08:59;;;;;;;32.33;23.90;;;;;;;5.15;92.93;99212.38;5103865;28;20788;-71
2020/12/13 00:11:26;;;;;;;31.90;23.77;;;;;;;5.06;93.13;99218.47;5102113;28;21224;-70
2020/12/13 00:13:52;;;;;;;38.60;26.63;;;;;;;5.07;93.44;99210.41;5093015;28;20918;-70
2020/12/13 00:16:18;;;;;;;36.70;24.47;;;;;;;5.11;92.97;99208.31;5101667;28;20471;-70
2020/12/13 00:18:44;;;;;;;36.73;25.00;;;;;;;5.05;93.30;99209.69;5092077;28;20464;-69
2020/12/13 00:21:12;;;;;;;38.83;27.30;;;;;;;5.13;93.25;99205.53;5082013;28;20475;-71
2020/12/13 00:23:38;;;;;;;35.73;24.47;;;;;;;5.12;93.50;99214.44;5067522;28;20484;-71
2020/12/13 00:26:07;;;;;;;36.17;23.50;;;;;;;5.20;93.33;99209.34;5061799;28;20821;-71
2020/12/13 00:28:34;;;;;;;31.10;22.97;;;;;;;5.22;93.40;99204.75;5080809;28;20456;-71
2020/12/13 00:31:00;;;;;;;36.53;24.70;;;;;;;5.22;93.27;99212.69;5062403;28;20982;-70
2020/12/13 00:33:26;;;;;;;40.83;26.17;;;;;;;5.26;92.99;99211.47;5065169;28;20463;-71
2020/12/13 00:35:52;;;;;;;38.00;24.13;;;;;;;5.33;92.64;99209.09;5061399;28;20472;-70
2020/12/13 00:38:20;;;;;;;40.47;26.13;;;;;;;5.30;92.16;99223.47;5074419;28;20843;-70
2020/12/13 00:40:48;;;;;;;37.90;25.17;;;;;;;5.35;92.26;99220.44;5060110;28;20483;-71
2020/12/13 00:43:15;;;;;;;37.33;24.97;;;;;;;5.22;92.58;99221.47;5065332;28;20455;-70
2020/12/13 00:45:42;;;;;;;36.30;24.60;;;;;;;5.16;92.75;99229.13;5069217;28;20487;-71
2020/12/13 00:48:09;;;;;;;37.03;25.20;;;;;;;5.24;92.75;99230.16;5083373;28;20516;-70
2020/12/13 00:50:37;;;;;;;40.73;25.07;;;;;;;5.20;92.83;99223.41;5067829;28;20465;-71
2020/12/13 00:53:04;;;;;;;39.77;25.77;;;;;;;5.20;92.93;99234.00;5064045;28;20425;-70
2020/12/13 00:55:30;;;;;;;37.87;26.03;;;;;;;5.15;93.19;99244.16;5076820;28;20468;-71
2020/12/13 00:57:56;;;;;;;39.13;25.13;;;;;;;5.25;93.39;99238.94;5079860;28;20433;-70
2020/12/13 01:00:22;;;;;;;39.87;25.90;;;;;;;5.30;93.14;99249.16;5062646;28;20476;-70
2020/12/13 01:02:49;;;;;;;40.13;25.47;;;;;;;5.28;93.01;99244.81;5063728;28;20448;-71
2020/12/13 01:05:16;;;;;;;39.30;24.80;;;;;;;5.19;93.24;99253.56;5064983;28;20460;-71
2020/12/13 01:07:42;;;;;;;38.70;26.33;;;;;;;5.35;93.18;99241.63;5063589;28;20455;-71
2020/12/13 01:10:09;;;;;;;38.93;25.80;;;;;;;5.12;93.57;99243.59;5060878;28;20507;-70
2020/12/13 01:12:35;;;;;;;38.83;26.50;;;;;;;5.17;93.78;99249.34;5064149;28;20517;-71
2020/12/13 01:15:02;;;;;;;45.50;27.27;;;;;;;5.21;93.99;99251.59;5078485;28;20944;-71
2020/12/13 01:17:28;;;;;;;39.43;25.77;;;;;;;5.19;93.86;99253.56;5082322;28;20967;-71
2020/12/13 01:19:55;;;;;;;42.70;24.73;;;;;;;5.21;94.00;99256.91;5070411;28;20488;-70
2020/12/13 01:22:23;;;;;;;38.33;24.90;;;;;;;5.36;93.75;99268.00;5068078;28;20479;-71
2020/12/13 01:24:49;;;;;;;42.67;26.27;;;;;;;5.32;93.89;99268.41;5095239;28;20534;-71
2020/12/13 01:27:15;;;;;;;43.10;27.00;;;;;;;5.36;93.42;99272.47;5101990;28;20495;-71
2020/12/13 01:29:41;;;;;;;42.83;26.60;;;;;;;5.34;93.55;99277.06;5091753;28;20475;-71
2020/12/13 01:32:07;;;;;;;42.97;26.70;;;;;;;5.32;93.63;99271.06;5081891;28;20503;-70
2020/12/13 01:34:33;;;;;;;42.40;26.20;;;;;;;5.29;93.95;99269.50;5083417;28;20444;-70
2020/12/13 01:37:01;;;;;;;40.27;25.63;;;;;;;5.40;93.95;99266.78;5089239;28;20501;-71
2020/12/13 01:39:27;;;;;;;38.87;24.90;;;;;;;5.53;93.24;99268.38;5103389;28;20443;-70
2020/12/13 01:41:56;;;;;;;37.80;24.80;;;;;;;5.49;93.01;99278.41;5099154;28;20503;-71
2020/12/13 01:44:29;;;;;;;37.33;24.07;;;;;;;5.44;93.31;99280.59;5084657;28;20416;-70
2020/12/13 01:46:55;;;;;;;38.63;25.17;;;;;;;5.39;93.10;99291.59;5088301;28;20487;-71
2020/12/13 01:49:22;;;;;;;40.40;25.40;;;;;;;5.35;93.43;99282.22;5105032;28;20472;-71
2020/12/13 01:52:04;;;;;;;42.87;26.20;;;;;;;5.32;93.83;99290.44;5089881;28;20501;-71
2020/12/13 01:54:33;;;;;;;41.00;26.00;;;;;;;5.31;94.08;99288.75;5102830;28;20526;-70
2020/12/13 01:57:01;;;;;;;41.57;25.93;;;;;;;5.25;94.32;99300.72;5106232;28;20538;-71
2020/12/13 01:59:29;;;;;;;42.70;25.93;;;;;;;5.33;93.88;99296.56;5108720;28;20470;-71
2020/12/13 02:01:57;;;;;;;42.10;24.63;;;;;;;5.30;93.87;99294.19;5105799;28;20472;-71
2020/12/13 02:04:24;;;;;;;39.03;23.93;;;;;;;5.39;94.00;99296.06;5104742;28;20462;-70
2020/12/13 02:06:52;;;;;;;39.63;24.80;;;;;;;5.35;94.02;99295.47;5086103;28;20507;-71
2020/12/13 02:09:19;;;;;;;35.97;24.30;;;;;;;5.32;93.96;99302.84;5088209;28;20444;-71
2020/12/13 02:11:46;;;;;;;35.53;23.70;;;;;;;5.31;94.07;99298.50;5086161;28;20499;-71
2020/12/13 02:14:12;;;;;;;33.70;22.00;;;;;;;5.37;94.28;99292.72;5088014;28;20439;-71
2020/12/13 02:16:38;;;;;;;42.60;25.60;;;;;;;5.51;93.73;99307.44;5102048;28;20505;-71
2020/12/13 02:19:05;;;;;;;34.50;23.03;;;;;;;5.65;93.50;99301.78;5096783;28;20491;-70
2020/12/13 02:21:31;;;;;;;29.50;22.13;;;;;;;5.50;93.09;99305.72;5086668;28;20502;-71
2020/12/13 02:23:58;;;;;;;40.07;26.73;;;;;;;5.45;93.59;99309.63;5088259;28;20514;-70
2020/12/13 02:26:24;;;;;;;47.57;27.30;;;;;;;5.46;93.51;99310.47;5084802;28;20471;-70
2020/12/13 02:28:50;;;;;;;42.43;24.80;;;;;;;5.65;93.57;99317.69;5093812;28;20872;-69
2020/12/13 02:31:17;;;;;;;46.40;27.00;;;;;;;5.52;93.63;99317.91;5106106;28;20516;-71
2020/12/13 02:33:43;;;;;;;45.20;25.20;;;;;;;5.54;93.85;99315.97;5103551;28;20444;-70
2020/12/13 02:36:09;;;;;;;44.30;26.07;;;;;;;5.63;94.17;99319.63;5085237;28;20504;-71
2020/12/13 02:38:35;;;;;;;43.63;25.17;;;;;;;5.71;94.25;99326.91;5088277;28;20461;-70
2020/12/13 02:41:02;;;;;;;37.60;22.80;;;;;;;5.92;93.63;99330.38;5084904;28;20495;-70
2020/12/13 02:43:29;;;;;;;41.20;23.43;;;;;;;6.00;93.37;99327.91;5093599;28;20808;-70
2020/12/13 02:45:55;;;;;;;42.47;22.80;;;;;;;5.90;93.55;99332.28;5105387;28;20498;-70
2020/12/13 02:48:21;;;;;;;41.27;24.13;;;;;;;5.94;93.85;99328.44;5106639;28;20453;-70
2020/12/13 02:50:47;;;;;;;51.80;27.53;;;;;;;5.90;94.03;99321.69;5086134;28;20483;-70
2020/12/13 02:53:14;;;;;;;50.00;26.60;;;;;;;5.96;94.03;99337.13;5104488;28;20475;-71
2020/12/13 02:55:41;;;;;;;61.10;29.20;;;;;;;6.06;93.81;99331.84;5104921;28;20542;-71
2020/12/13 02:58:08;;;;;;;64.87;31.07;;;;;;;6.01;93.80;99332.25;5100934;28;20490;-70
2020/12/13 03:00:34;;;;;;;56.97;31.10;;;;;;;6.04;93.87;99339.09;5084303;28;20496;-70
2020/12/13 03:03:00;;;;;;;63.57;30.63;;;;;;;6.03;93.94;99340.91;5102938;28;20478;-71
2020/12/13 03:05:26;;;;;;;68.30;33.90;;;;;;;6.05;94.06;99353.22;5093655;28;20536;-70
2020/12/13 03:07:52;;;;;;;73.97;32.37;;;;;;;6.10;93.69;99351.00;5091036;28;20480;-71
2020/12/13 03:10:18;;;;;;;69.03;34.10;;;;;;;6.03;93.87;99362.13;5094734;28;20541;-70
2020/12/13 03:12:44;;;;;;;73.40;33.90;;;;;;;6.10;94.20;99351.84;5106707;28;20479;-71
2020/12/13 03:15:11;;;;;;;72.63;34.30;;;;;;;6.14;93.44;99355.06;5104564;28;20494;-71
2020/12/13 03:17:37;;;;;;;70.27;35.03;;;;;;;6.18;93.36;99359.97;5106973;28;20799;-71
2020/12/13 03:20:04;;;;;;;75.33;36.03;;;;;;;6.20;93.48;99354.53;5096725;28;20494;-70
2020/12/13 03:22:30;;;;;;;86.23;36.93;;;;;;;6.12;93.80;99357.84;5077773;28;20480;-71
2020/12/13 03:24:56;;;;;;;77.40;34.13;;;;;;;6.06;94.14;99357.53;5065899;28;20463;-70
2020/12/13 03:27:24;;;;;;;80.50;36.83;;;;;;;6.20;93.74;99359.84;5064504;28;21012;-71
2020/12/13 03:29:51;;;;;;;80.43;34.47;;;;;;;6.29;93.39;99369.63;5072471;28;20478;-71
2020/12/13 03:32:18;;;;;;;75.30;33.77;;;;;;;6.27;93.64;99358.31;5083400;28;21230;-71
2020/12/13 03:34:44;;;;;;;84.03;35.70;;;;;;;6.27;93.23;99360.97;5079098;28;20516;-71
2020/12/13 03:37:10;;;;;;;92.57;35.17;;;;;;;6.28;93.23;99354.69;5064822;28;20546;-71
2020/12/13 03:39:36;;;;;;;74.47;35.40;;;;;;;6.18;93.85;99361.75;5066013;28;20488;-71
2020/12/13 03:42:02;;;;;;;77.07;35.73;;;;;;;6.24;93.81;99357.75;5064049;28;20476;-71
2020/12/13 03:44:28;;;;;;;86.90;35.83;;;;;;;6.28;93.39;99367.13;5067214;28;21740;-71
2020/12/13 03:46:54;;;;;;;76.03;33.40;;;;;;;6.25;93.37;99372.69;5064225;28;20526;-71
2020/12/13 03:49:21;;;;;;;81.63;35.83;;;;;;;6.27;93.63;99376.03;5065645;28;20456;-71
2020/12/13 03:51:47;;;;;;;84.20;36.57;;;;;;;6.33;93.22;99375.53;5044026;28;20486;-71
2020/12/13 03:54:14;;;;;;;79.60;35.40;;;;;;;6.27;93.60;99376.03;5053261;28;20476;-71
2020/12/13 03:56:40;;;;;;;81.77;37.00;;;;;;;6.27;93.33;99387.53;5063830;28;20511;-71
2020/12/13 03:59:06;;;;;;;86.73;37.17;;;;;;;6.21;93.73;99388.03;5069433;28;20472;-71
2020/12/13 04:01:32;;;;;;;78.70;38.03;;;;;;;6.31;93.63;99388.09;5083956;28;20475;-71
2020/12/13 04:03:58;;;;;;;87.83;38.30;;;;;;;6.30;93.59;99394.38;5083295;28;20448;-71
2020/12/13 04:06:25;;;;;;;82.67;37.20;;;;;;;6.27;93.81;99390.19;5063434;28;20898;-71
2020/12/13 04:08:51;;;;;;;93.97;35.33;;;;;;;6.22;93.94;99392.38;5066174;28;20444;-71
2020/12/13 04:11:17;;;;;;;92.50;39.90;;;;;;;6.26;94.16;99396.44;5063218;28;20535;-71
2020/12/13 04:13:44;;;;;;;84.57;35.90;;;;;;;6.30;93.97;99394.38;5067291;28;20451;-71
2020/12/13 04:16:11;;;;;;;87.17;38.30;;;;;;;6.26;93.84;99401.75;5063744;28;20507;-71
2020/12/13 04:18:38;;;;;;;86.10;36.23;;;;;;;6.25;93.90;99393.91;5078939;28;20498;-71
2020/12/13 04:21:04;;;;;;;97.27;38.23;;;;;;;6.25;94.31;99397.44;5066285;28;20505;-71
2020/12/13 04:23:31;;;;;;;91.77;35.97;;;;;;;6.22;94.26;99408.31;5090999;28;20489;-71
2020/12/13 04:25:57;;;;;;;97.70;38.00;;;;;;;6.30;94.18;99403.19;5103386;28;20929;-71
2020/12/13 04:28:23;;;;;;;93.60;35.73;;;;;;;6.25;93.89;99401.88;5094085;28;20523;-71
2020/12/13 04:30:49;;;;;;;92.37;37.53;;;;;;;6.22;94.05;99405.66;5083012;28;20476;-71
2020/12/13 04:33:16;;;;;;;99.00;36.97;;;;;;;6.34;93.93;99404.59;5098742;28;20478;-71
2020/12/13 04:35:42;;;;;;;101.50;38.90;;;;;;;6.30;94.13;99410.28;5089417;28;20492;-71
2020/12/13 04:38:08;;;;;;;98.30;39.43;;;;;;;6.27;93.90;99399.94;5084905;28;20553;-71
2020/12/13 04:40:35;;;;;;;93.77;37.27;;;;;;;6.33;93.54;99408.19;5088955;28;20521;-71
2020/12/13 04:43:02;;;;;;;104.13;36.63;;;;;;;6.32;94.09;99411.84;5105152;28;20482;-71
2020/12/13 04:45:29;;;;;;;86.83;36.93;;;;;;;6.30;94.12;99412.94;5103053;28;20602;-70
2020/12/13 04:48:03;;;;;;;95.07;38.83;;;;;;;6.23;94.00;99417.94;5105250;28;21109;-71
2020/12/13 04:50:31;;;;;;;121.40;37.57;;;;;;;6.25;94.46;99421.31;5090880;28;20507;-71
2020/12/13 04:52:57;;;;;;;110.37;38.40;;;;;;;6.29;94.41;99427.22;5084904;28;20472;-73
2020/12/13 04:55:24;;;;;;;101.83;39.50;;;;;;;6.24;94.54;99426.78;5086256;28;21751;-70
2020/12/13 04:57:50;;;;;;;95.57;38.07;;;;;;;6.25;94.56;99431.94;5085436;28;20463;-71
2020/12/13 05:00:18;;;;;;;105.63;40.03;;;;;;;6.29;94.46;99437.81;5084545;28;20507;-71
2020/12/13 05:02:44;;;;;;;108.53;40.37;;;;;;;6.30;94.57;99435.03;5084820;28;20467;-71
2020/12/13 05:05:11;;;;;;;112.97;39.60;;;;;;;6.23;94.65;99439.19;5086352;28;20483;-70
2020/12/13 05:07:37;;;;;;;109.90;38.30;;;;;;;6.24;94.51;99435.56;5104985;28;20455;-71
2020/12/13 05:10:04;;;;;;;98.43;36.30;;;;;;;6.29;94.43;99438.66;5104386;28;20478;-71
2020/12/13 05:12:30;;;;;;;105.03;38.97;;;;;;;6.30;94.25;99443.00;5103317;28;20494;-71
2020/12/13 05:14:57;;;;;;;97.33;36.03;;;;;;;6.22;94.43;99443.66;5104445;28;20829;-70
2020/12/13 05:17:24;;;;;;;86.77;35.80;;;;;;;6.27;94.46;99443.25;5103438;28;20501;-71
2020/12/13 05:19:51;;;;;;;98.90;38.73;;;;;;;6.30;94.38;99450.97;5089687;28;20502;-71
2020/12/13 05:22:20;;;;;;;91.57;35.80;;;;;;;6.29;94.39;99453.75;5082999;28;20490;-70
2020/12/13 05:24:46;;;;;;;97.93;37.10;;;;;;;6.35;94.26;99453.19;5105305;28;20443;-70
2020/12/13 05:27:12;;;;;;;87.90;35.87;;;;;;;6.35;94.22;99455.84;5106645;28;20519;-71
2020/12/13 05:29:43;;;;;;;94.20;34.93;;;;;;;6.36;94.00;99458.38;5092506;28;20451;-71
2020/12/13 05:32:14;;;;;;;81.47;34.17;;;;;;;6.38;94.57;99463.56;5086681;28;21005;-71
2020/12/13 05:34:42;;;;;;;84.97;31.97;;;;;;;6.37;94.38;99459.22;5098427;28;20444;-71
2020/12/13 05:37:14;;;;;;;73.63;32.07;;;;;;;6.37;94.20;99465.38;5087513;28;20476;-71
2020/12/13 05:39:42;;;;;;;80.27;31.80;;;;;;;6.32;94.23;99469.38;5088350;28;20430;-70
2020/12/13 05:42:10;;;;;;;79.37;30.97;;;;;;;6.37;93.87;99470.69;5095617;28;20467;-71
2020/12/13 05:44:59;;;;;;;86.17;32.10;;;;;;;6.36;94.15;99470.81;5090777;28;20459;-71
2020/12/13 05:47:50;;;;;;;75.90;32.03;;;;;;;6.47;93.83;99477.84;5097419;28;20527;-71
2020/12/13 05:53:09;;;;;;;100.70;35.80;;;;;;;6.43;93.77;99481.75;5007705;28;20447;-71
2020/12/13 05:55:35;;;;;;;112.03;36.30;;;;;;;6.49;93.81;99474.09;5004392;28;20534;-71
2020/12/13 05:58:01;;;;;;;102.93;36.70;;;;;;;6.45;93.90;99477.97;5024366;28;20534;-71
2020/12/13 06:00:28;;;;;;;105.13;36.60;;;;;;;6.44;93.50;99481.63;5024647;28;20510;-70
2020/12/13 06:02:55;;;;;;;107.53;39.47;;;;;;;6.48;93.65;99483.03;5007376;28;20459;-71
2020/12/13 06:05:23;;;;;;;101.00;37.53;;;;;;;6.43;93.54;99490.56;5005084;28;20447;-71
2020/12/13 06:07:50;;;;;;;108.30;38.87;;;;;;;6.39;93.69;99483.84;5024145;28;20478;-71
2020/12/13 06:10:24;;;;;;;99.73;38.40;;;;;;;6.44;94.09;99494.91;5007615;28;20546;-70
2020/12/13 06:12:58;;;;;;;100.00;37.73;;;;;;;6.37;93.80;99491.94;5005948;28;20486;-71
2020/12/13 06:15:24;;;;;;;114.37;38.23;;;;;;;6.49;94.05;99495.34;5003851;28;20862;-71
2020/12/13 06:17:51;;;;;;;110.70;39.40;;;;;;;6.49;93.50;99505.09;5005911;28;20427;-71
2020/12/13 06:20:18;;;;;;;108.50;37.60;;;;;;;6.41;93.94;99506.63;5003915;28;20487;-70
2020/12/13 06:22:45;;;;;;;104.60;39.40;;;;;;;6.46;93.88;99510.69;5015967;28;20497;-70
2020/12/13 06:25:11;;;;;;;108.20;40.23;;;;;;;6.56;93.11;99514.22;5003804;28;21004;-70
2020/12/13 06:27:38;;;;;;;109.80;38.13;;;;;;;6.48;93.57;99514.06;5006352;28;20528;-71
2020/12/13 06:30:08;;;;;;;105.00;35.67;;;;;;;6.51;93.44;99516.44;5086335;28;20443;-68
2020/12/13 06:32:41;;;;;;;94.53;35.20;;;;;;;6.43;93.86;99524.25;5086957;28;20959;-71
2020/12/13 06:35:07;;;;;;;93.23;36.00;;;;;;;6.51;93.35;99527.91;5085657;28;20479;-70
2020/12/13 06:37:36;;;;;;;104.63;36.80;;;;;;;6.46;93.37;99530.13;5088844;28;20525;-71
2020/12/13 06:40:04;;;;;;;90.87;35.23;;;;;;;6.56;93.09;99530.16;5088744;28;20459;-70
2020/12/13 06:42:35;;;;;;;87.67;32.70;;;;;;;6.48;93.41;99535.31;5105623;28;20466;-71
2020/12/13 06:45:09;;;;;;;88.60;31.63;;;;;;;6.53;92.78;99531.28;5106757;28;20487;-71
2020/12/13 06:47:39;;;;;;;88.07;31.20;;;;;;;6.48;93.13;99541.44;5106163;28;20486;-71
2020/12/13 06:50:07;;;;;;;91.30;32.40;;;;;;;6.47;93.65;99546.91;5099997;28;20453;-69
2020/12/13 06:52:35;;;;;;;85.10;31.27;;;;;;;6.40;93.30;99551.88;5107155;28;20999;-71
2020/12/13 06:55:03;;;;;;;84.17;32.93;;;;;;;6.51;93.18;99546.50;5102293;28;20480;-71
2020/12/13 06:57:31;;;;;;;100.77;34.80;;;;;;;6.46;93.05;99553.16;5085535;28;20564;-71
2020/12/13 06:59:57;;;;;;;96.80;33.30;;;;;;;6.48;93.38;99557.38;5091994;28;20444;-71
2020/12/13 07:02:48;;;;;;;106.47;33.97;;;;;;;6.46;93.17;99556.69;5084836;28;20531;-71
2020/12/13 07:05:14;;;;;;;84.77;31.87;;;;;;;6.49;93.54;99559.09;5074592;28;20484;-72
2020/12/13 07:07:46;;;;;;;89.60;32.20;;;;;;;6.53;92.95;99560.50;5086418;28;20467;-70
2020/12/13 07:10:12;;;;;;;89.53;32.10;;;;;;;6.43;93.17;99567.56;5085242;28;20467;-71
2020/12/13 07:12:39;;;;;;;86.00;34.10;;;;;;;6.43;92.83;99561.41;5086415;28;20482;-70
2020/12/13 07:15:16;;;;;;;93.67;33.90;;;;;;;6.37;93.10;99578.69;5084580;28;20467;-71
2020/12/13 07:17:43;;;;;;;91.03;34.30;;;;;;;6.39;92.94;99574.94;5094849;28;20446;-71
2020/12/13 07:20:11;;;;;;;67.07;27.93;;;;;;;6.34;93.05;99574.50;5095473;28;20542;-70
2020/12/13 07:22:37;;;;;;;78.70;29.40;;;;;;;6.35;92.70;99573.53;5093194;28;20475;-71
2020/12/13 07:25:04;;;;;;;84.03;31.20;;;;;;;6.46;92.44;99580.59;5105994;28;20455;-71
2020/12/13 07:27:32;;;;;;;78.63;31.50;;;;;;;6.40;92.92;99581.09;5104442;28;20509;-70
2020/12/13 07:29:58;;;;;;;73.73;30.17;;;;;;;6.46;92.13;99590.34;5107106;28;20455;-72
2020/12/13 07:32:24;;;;;;;72.17;28.80;;;;;;;6.51;92.15;99586.34;5103680;28;20501;-72
2020/12/13 07:34:50;;;;;;;67.30;27.90;;;;;;;6.49;91.57;99592.75;5099226;28;20452;-72
2020/12/13 07:37:17;;;;;;;68.00;28.67;;;;;;;6.45;91.73;99593.97;5087489;28;20500;-72
2020/12/13 07:39:43;;;;;;;66.00;27.70;;;;;;;6.47;92.16;99592.03;5090403;28;20445;-72
2020/12/13 07:42:13;;;;;;;71.43;30.00;;;;;;;6.39;92.00;99598.00;5103988;28;20542;-72
2020/12/13 07:44:39;;;;;;;65.00;26.67;;;;;;;6.38;92.12;99610.41;5105164;28;20455;-73
2020/12/13 07:47:05;;;;;;;65.80;28.70;;;;;;;6.42;92.52;99613.66;5103691;28;20483;-70
2020/12/13 07:49:31;;;;;;;63.97;27.90;;;;;;;6.38;92.04;99605.13;5100906;28;20479;-70
2020/12/13 07:51:58;;;;;;;68.70;28.67;;;;;;;6.35;92.30;99621.31;5083641;28;20480;-71
2020/12/13 07:54:25;;;;;;;61.70;28.63;;;;;;;6.41;92.51;99609.34;5095356;28;20974;-71
2020/12/13 07:56:52;;;;;;;75.20;27.83;;;;;;;6.47;92.00;99619.41;5083311;28;20475;-71
2020/12/13 07:59:20;;;;;;;54.40;25.50;;;;;;;6.53;92.13;99620.75;5098673;28;20813;-72
2020/12/13 08:01:47;;;;;;;60.83;27.90;;;;;;;6.56;91.43;99621.31;5103916;28;20471;-70
2020/12/13 08:04:14;;;;;;;55.37;25.33;;;;;;;6.50;91.58;99628.97;5098662;28;20483;-68
2020/12/13 08:06:40;;;;;;;62.87;28.50;;;;;;;6.48;91.84;99638.88;5083173;28;20503;-69
2020/12/13 08:09:07;;;;;;;63.53;27.20;;;;;;;6.42;92.18;99640.22;5093908;28;20462;-69
2020/12/13 08:11:34;;;;;;;58.10;25.87;;;;;;;6.41;92.15;99639.38;5103466;28;20510;-69
2020/12/13 08:14:00;;;;;;;55.87;27.10;;;;;;;6.41;91.86;99646.50;5104721;28;20524;-69
2020/12/13 08:16:27;;;;;;;56.23;26.13;;;;;;;6.38;91.89;99652.06;5087790;28;20492;-69
2020/12/13 08:18:56;;;;;;;67.53;27.90;;;;;;;6.40;92.01;99663.41;5085932;28;20466;-70
2020/12/13 08:21:27;;;;;;;52.97;24.47;;;;;;;6.39;92.11;99667.88;5083306;28;20468;-68
2020/12/13 08:23:56;;;;;;;59.60;26.83;;;;;;;6.36;92.18;99664.63;5075378;28;20476;-69
2020/12/13 08:26:23;;;;;;;55.57;26.33;;;;;;;6.37;92.39;99661.84;5082749;28;21070;-70
2020/12/13 08:28:51;;;;;;;59.73;29.40;;;;;;;6.58;91.23;99661.88;5083985;28;20542;-68
2020/12/13 08:31:20;;;;;;;55.63;26.83;;;;;;;6.55;91.16;99671.91;5083447;28;20476;-70
2020/12/13 08:33:47;;;;;;;49.97;25.00;;;;;;;6.53;90.82;99674.69;5084028;28;20539;-70
2020/12/13 08:36:17;;;;;;;60.60;26.00;;;;;;;6.47;90.94;99679.66;5066122;28;20480;-70
2020/12/13 08:38:44;;;;;;;53.33;26.03;;;;;;;6.44;91.33;99680.78;5064692;28;20425;-70
2020/12/13 08:41:12;;;;;;;58.30;27.67;;;;;;;6.55;90.58;99682.53;5067713;28;20511;-70
2020/12/13 08:43:39;;;;;;;52.23;25.37;;;;;;;6.52;90.69;99688.09;5066085;28;20523;-69
2020/12/13 08:46:06;;;;;;;55.57;25.53;;;;;;;6.49;90.77;99683.03;5083422;28;20894;-70
2020/12/13 08:48:32;;;;;;;50.50;25.70;;;;;;;6.61;89.95;99687.31;5083655;28;20956;-69
2020/12/13 08:51:06;;;;;;;57.30;25.73;;;;;;;6.59;89.36;99683.94;5067355;28;20619;-69
2020/12/13 08:53:33;;;;;;;48.47;24.90;;;;;;;6.58;89.43;99692.91;5064184;28;20444;-69
2020/12/13 08:56:02;;;;;;;54.57;27.90;;;;;;;6.59;89.26;99692.75;5062308;28;20484;-69
2020/12/13 08:58:28;;;;;;;46.40;23.30;;;;;;;6.62;89.24;99693.47;5057584;28;20465;-74
2020/12/13 09:01:04;;;;;;;48.80;25.87;;;;;;;6.72;88.60;99695.22;5061263;28;20850;-73
2020/12/13 09:03:30;;;;;;;54.87;24.20;;;;;;;6.87;88.37;99695.72;5062047;28;20464;-69
2020/12/13 09:05:57;;;;;;;47.50;23.63;;;;;;;7.29;87.78;99694.81;5052899;28;20928;-68
2020/12/13 09:08:24;;;;;;;45.40;24.20;;;;;;;7.72;85.62;99699.91;5079417;28;20447;-77
2020/12/13 09:10:52;;;;;;;42.33;23.33;;;;;;;7.57;85.23;99701.25;5082052;28;20488;-75
2020/12/13 09:13:18;;;;;;;41.53;22.80;;;;;;;7.38;85.39;99706.47;5083384;28;20452;-75
2020/12/13 09:15:44;;;;;;;37.40;22.60;;;;;;;7.34;85.63;99705.91;5068055;28;20544;-72
2020/12/13 09:18:11;;;;;;;40.83;24.13;;;;;;;7.23;86.27;99708.66;5058779;28;20488;-73
2020/12/13 09:20:37;;;;;;;49.67;25.03;;;;;;;7.18;86.87;99700.25;5060386;28;20472;-73
2020/12/13 09:23:05;;;;;;;45.60;25.33;;;;;;;6.95;87.10;99717.19;5067528;28;20478;-73
2020/12/13 09:25:37;;;;;;;45.37;22.70;;;;;;;7.06;86.55;99724.25;5079263;28;20479;-72
2020/12/13 09:28:03;;;;;;;44.33;24.13;;;;;;;7.07;87.04;99727.75;5081689;28;20470;-73
2020/12/13 09:30:29;;;;;;;47.23;23.23;;;;;;;7.05;86.94;99727.03;5081083;28;20471;-73
2020/12/13 09:32:56;;;;;;;44.87;23.00;;;;;;;7.07;86.35;99731.25;5082494;28;20452;-73
2020/12/13 09:35:22;;;;;;;42.57;24.00;;;;;;;7.09;86.24;99739.94;5086722;28;20818;-73
2020/12/13 09:37:48;;;;;;;45.10;24.27;;;;;;;6.77;87.25;99737.31;5081997;28;20863;-73
2020/12/13 09:40:15;;;;;;;43.03;25.70;;;;;;;6.89;87.09;99738.13;5084998;28;20443;-73
2020/12/13 09:42:42;;;;;;;43.93;23.50;;;;;;;6.95;87.60;99738.44;5080948;28;20472;-75
2020/12/13 09:45:08;;;;;;;46.60;24.67;;;;;;;6.95;87.38;99740.28;5080834;28;20583;-74
2020/12/13 09:47:34;;;;;;;44.27;23.90;;;;;;;7.12;86.61;99746.81;5081534;28;20455;-80
2020/12/13 09:50:00;;;;;;;46.23;23.87;;;;;;;7.22;86.47;99739.75;5081167;28;20456;-66
2020/12/13 09:52:28;;;;;;;48.77;25.23;;;;;;;7.14;86.39;99752.84;5081903;28;20488;-74
2020/12/13 09:54:54;;;;;;;47.63;24.70;;;;;;;7.15;87.00;99752.72;5081211;28;20454;-75
2020/12/13 09:57:20;;;;;;;46.00;22.93;;;;;;;7.17;87.46;99749.94;5075152;28;20495;-74
2020/12/13 09:59:47;;;;;;;56.10;26.90;;;;;;;7.07;88.28;99751.69;5077717;28;20447;-76
2020/12/13 10:02:13;;;;;;;59.30;27.80;;;;;;;7.06;88.04;99750.81;5079492;28;20575;-75
2020/12/13 10:04:39;;;;;;;61.77;25.87;;;;;;;7.02;88.63;99751.22;5080951;28;20976;-77
2020/12/13 10:07:25;;;;;;;56.07;28.20;;;;;;;7.03;89.15;99752.91;5077126;28;20507;-71
2020/12/13 10:09:51;;;;;;;62.10;28.57;;;;;;;7.06;89.09;99760.63;5082947;28;20421;-71
2020/12/13 10:12:17;;;;;;;61.77;26.77;;;;;;;7.11;89.04;99750.44;5082533;28;20506;-71
2020/12/13 10:14:45;;;;;;;55.70;29.27;;;;;;;7.04;89.22;99752.78;5084999;28;20686;-71
2020/12/13 10:17:12;;;;;;;66.30;28.43;;;;;;;6.98;90.34;99755.97;5082356;28;20481;-69
2020/12/13 10:19:38;;;;;;;66.13;30.27;;;;;;;7.12;89.49;99758.28;5088078;28;20491;-69
2020/12/13 10:22:04;;;;;;;62.00;30.47;;;;;;;7.06;89.91;99765.94;5082851;28;20502;-68
2020/12/13 10:24:31;;;;;;;58.60;26.67;;;;;;;7.27;89.34;99756.09;5066676;28;20496;-68
2020/12/13 10:26:57;;;;;;;61.07;27.73;;;;;;;7.34;88.88;99757.28;5059047;28;20496;-68
2020/12/13 10:29:23;;;;;;;62.87;28.60;;;;;;;7.37;89.16;99766.81;5064871;28;20445;-68
2020/12/13 10:31:49;;;;;;;60.53;29.30;;;;;;;7.42;88.58;99758.44;5063000;28;20922;-68
2020/12/13 10:34:17;;;;;;;69.30;29.10;;;;;;;7.40;89.08;99765.72;5068317;28;20476;-68
2020/12/13 10:36:44;;;;;;;72.30;29.47;;;;;;;7.37;89.15;99760.66;5063577;28;20461;-68
2020/12/13 10:39:11;;;;;;;60.57;28.20;;;;;;;7.33;88.92;99763.56;5063947;28;20459;-67
2020/12/13 10:41:38;;;;;;;67.40;29.53;;;;;;;7.24;89.27;99763.50;5062063;28;20484;-69
2020/12/13 10:44:08;;;;;;;68.70;30.70;;;;;;;7.28;89.52;99771.09;5068496;28;20445;-69
2020/12/13 10:46:34;;;;;;;60.07;28.10;;;;;;;7.25;89.72;99773.19;5059494;28;20688;-69
2020/12/13 10:49:00;;;;;;;60.43;30.47;;;;;;;7.36;89.27;99765.16;5061735;28;20453;-69
2020/12/13 10:51:27;;;;;;;71.27;27.97;;;;;;;7.28;89.28;99765.78;5064220;28;20476;-69
2020/12/13 10:53:53;;;;;;;61.93;27.83;;;;;;;7.27;89.61;99771.22;5068571;28;20632;-69
2020/12/13 10:56:20;;;;;;;62.57;29.17;;;;;;;7.34;89.30;99767.94;5061666;28;20465;-69
2020/12/13 10:58:46;;;;;;;67.23;29.70;;;;;;;7.23;90.25;99767.16;5064817;28;20453;-69
2020/12/13 11:01:13;;;;;;;62.83;28.87;;;;;;;7.23;89.99;99769.81;5062197;28;20500;-68
2020/12/13 11:03:44;;;;;;;71.67;30.13;;;;;;;7.21;90.24;99769.13;5080343;28;21100;-69
2020/12/13 11:06:10;;;;;;;72.80;31.60;;;;;;;7.29;90.00;99761.31;5076232;28;20474;-70
2020/12/13 11:08:37;;;;;;;68.07;29.93;;;;;;;7.31;90.48;99765.53;5082464;28;20439;-71
2020/12/13 11:11:05;;;;;;;68.87;30.80;;;;;;;7.33;90.33;99760.91;5074570;28;20509;-70
2020/12/13 11:13:31;;;;;;;77.10;29.13;;;;;;;7.43;89.75;99763.63;5073070;28;20977;-70
2020/12/13 11:15:58;;;;;;;70.90;27.87;;;;;;;7.50;89.05;99763.97;5060157;28;20481;-68
2020/12/13 11:18:29;;;;;;;73.50;31.03;;;;;;;7.72;88.72;99758.44;5064394;28;20484;-69
2020/12/13 11:20:56;;;;;;;62.93;28.20;;;;;;;7.75;87.59;99759.97;5059677;28;20500;-69
2020/12/13 11:23:22;;;;;;;67.70;30.30;;;;;;;7.78;87.65;99762.38;5069205;28;20844;-70
2020/12/13 11:25:49;;;;;;;59.13;27.90;;;;;;;8.00;86.80;99755.16;5081258;28;20480;-70
2020/12/13 11:28:15;;;;;;;56.80;27.17;;;;;;;7.94;86.57;99753.06;5080893;28;20486;-71